sensor_id;sensor_type;location;lat;lon;timestamp;pressure;altitude;pressure_sealevel;temperature
7389;BMP180;3735;50.136;11.062;2024-03-07T00:00:12;98800.00;;;5.20
7389;BMP180;3735;50.136;11.062;2024-03-07T00:02:48;98821.00;;;5.20
7389;BMP180;3735;50.136;11.062;2024-03-07T00:05:15;98819.00;;;5.20
7389;BMP180;3735;50.136;11.062;2024-03-07T00:07:41;98817.00;;;5.20
7389;BMP180;3735;50.136;11.062;2024-03-07T00:10:08;98806.00;;;5.20
7389;BMP180;3735;50.136;11.062;2024-03-07T00:12:36;98810.00;;;5.20
7389;BMP180;3735;50.136;11.062;2024-03-07T00:15:12;98810.00;;;5.20
7389;BMP180;3735;50.136;11.062;2024-03-07T00:17:38;98812.00;;;5.20
7389;BMP180;3735;50.136;11.062;2024-03-07T00:20:05;98802.00;;;5.10
7389;BMP180;3735;50.136;11.062;2024-03-07T00:22:36;98813.00;;;5.00
7389;BMP180;3735;50.136;11.062;2024-03-07T00:25:03;98795.00;;;5.00
7389;BMP180;3735;50.136;11.062;2024-03-07T00:27:33;98818.00;;;4.90
7389;BMP180;3735;50.136;11.062;2024-03-07T00:29:59;98811.00;;;5.00
7389;BMP180;3735;50.136;11.062;2024-03-07T00:32:25;98807.00;;;4.90
7389;BMP180;3735;50.136;11.062;2024-03-07T00:34:55;98813.00;;;5.00
7389;BMP180;3735;50.136;11.062;2024-03-07T00:37:22;98808.00;;;4.90
7389;BMP180;3735;50.136;11.062;2024-03-07T00:39:50;98809.00;;;4.90
7389;BMP180;3735;50.136;11.062;2024-03-07T00:42:16;98810.00;;;5.00
7389;BMP180;3735;50.136;11.062;2024-03-07T00:44:42;98807.00;;;5.00
7389;BMP180;3735;50.136;11.062;2024-03-07T00:47:08;98804.00;;;5.00
7389;BMP180;3735;50.136;11.062;2024-03-07T00:49:34;98806.00;;;5.00
7389;BMP180;3735;50.136;11.062;2024-03-07T00:52:00;98809.00;;;5.00
7389;BMP180;3735;50.136;11.062;2024-03-07T00:54:26;98809.00;;;5.00
7389;BMP180;3735;50.136;11.062;2024-03-07T00:56:52;98802.00;;;5.00
7389;BMP180;3735;50.136;11.062;2024-03-07T00:59:19;98798.00;;;5.00
7389;BMP180;3735;50.136;11.062;2024-03-07T01:01:45;98787.00;;;4.90
7389;BMP180;3735;50.136;11.062;2024-03-07T01:04:11;98806.00;;;4.90
7389;BMP180;3735;50.136;11.062;2024-03-07T01:06:37;98786.00;;;4.80
7389;BMP180;3735;50.136;11.062;2024-03-07T01:09:04;98797.00;;;4.80
7389;BMP180;3735;50.136;11.062;2024-03-07T01:11:30;98809.00;;;4.70
7389;BMP180;3735;50.136;11.062;2024-03-07T01:13:56;98785.00;;;4.70
7389;BMP180;3735;50.136;11.062;2024-03-07T01:16:22;98791.00;;;4.70
7389;BMP180;3735;50.136;11.062;2024-03-07T01:18:48;98796.00;;;4.60
7389;BMP180;3735;50.136;11.062;2024-03-07T01:21:15;98797.00;;;4.70
7389;BMP180;3735;50.136;11.062;2024-03-07T01:23:41;98799.00;;;4.60
7389;BMP180;3735;50.136;11.062;2024-03-07T01:26:07;98782.00;;;4.60
7389;BMP180;3735;50.136;11.062;2024-03-07T01:28:34;98793.00;;;4.50
7389;BMP180;3735;50.136;11.062;2024-03-07T01:31:00;98781.00;;;4.60
7389;BMP180;3735;50.136;11.062;2024-03-07T01:33:26;98787.00;;;4.50
7389;BMP180;3735;50.136;11.062;2024-03-07T01:35:52;98794.00;;;4.40
7389;BMP180;3735;50.136;11.062;2024-03-07T01:38:18;98792.00;;;4.40
7389;BMP180;3735;50.136;11.062;2024-03-07T01:40:45;98791.00;;;4.40
7389;BMP180;3735;50.136;11.062;2024-03-07T01:43:11;98784.00;;;4.50
7389;BMP180;3735;50.136;11.062;2024-03-07T01:45:40;98781.00;;;4.50
7389;BMP180;3735;50.136;11.062;2024-03-07T01:48:09;98780.00;;;4.40
7389;BMP180;3735;50.136;11.062;2024-03-07T01:50:36;98782.00;;;4.40
7389;BMP180;3735;50.136;11.062;2024-03-07T01:53:06;98766.00;;;4.50
7389;BMP180;3735;50.136;11.062;2024-03-07T01:55:35;98772.00;;;4.40
7389;BMP180;3735;50.136;11.062;2024-03-07T01:58:04;98783.00;;;4.40
7389;BMP180;3735;50.136;11.062;2024-03-07T02:00:31;98780.00;;;4.40
7389;BMP180;3735;50.136;11.062;2024-03-07T02:02:57;98763.00;;;4.40
7389;BMP180;3735;50.136;11.062;2024-03-07T02:05:23;98780.00;;;4.40
7389;BMP180;3735;50.136;11.062;2024-03-07T02:07:50;98774.00;;;4.40
7389;BMP180;3735;50.136;11.062;2024-03-07T02:10:16;98773.00;;;4.40
7389;BMP180;3735;50.136;11.062;2024-03-07T02:12:43;98774.00;;;4.30
7389;BMP180;3735;50.136;11.062;2024-03-07T02:15:10;98769.00;;;4.20
7389;BMP180;3735;50.136;11.062;2024-03-07T02:17:37;98772.00;;;4.30
7389;BMP180;3735;50.136;11.062;2024-03-07T02:20:04;98774.00;;;4.30
7389;BMP180;3735;50.136;11.062;2024-03-07T02:22:33;98771.00;;;4.20
7389;BMP180;3735;50.136;11.062;2024-03-07T02:24:59;98774.00;;;4.20
7389;BMP180;3735;50.136;11.062;2024-03-07T02:27:25;98771.00;;;4.20
7389;BMP180;3735;50.136;11.062;2024-03-07T02:29:50;98768.00;;;4.20
7389;BMP180;3735;50.136;11.062;2024-03-07T02:32:16;98768.00;;;4.10
7389;BMP180;3735;50.136;11.062;2024-03-07T02:34:43;98771.00;;;4.10
7389;BMP180;3735;50.136;11.062;2024-03-07T02:37:09;98760.00;;;3.90
7389;BMP180;3735;50.136;11.062;2024-03-07T02:39:36;98764.00;;;3.80
7389;BMP180;3735;50.136;11.062;2024-03-07T02:42:02;98760.00;;;3.70
7389;BMP180;3735;50.136;11.062;2024-03-07T02:44:28;98757.00;;;3.60
7389;BMP180;3735;50.136;11.062;2024-03-07T02:46:54;98765.00;;;3.40
7389;BMP180;3735;50.136;11.062;2024-03-07T02:49:20;98762.00;;;3.30
7389;BMP180;3735;50.136;11.062;2024-03-07T02:51:47;98760.00;;;3.30
7389;BMP180;3735;50.136;11.062;2024-03-07T02:54:13;98759.00;;;3.10
7389;BMP180;3735;50.136;11.062;2024-03-07T02:56:39;98762.00;;;3.10
7389;BMP180;3735;50.136;11.062;2024-03-07T02:59:04;98753.00;;;3.00
7389;BMP180;3735;50.136;11.062;2024-03-07T03:01:30;98753.00;;;2.80
7389;BMP180;3735;50.136;11.062;2024-03-07T03:03:56;98772.00;;;2.70
7389;BMP180;3735;50.136;11.062;2024-03-07T03:06:21;98768.00;;;2.60
7389;BMP180;3735;50.136;11.062;2024-03-07T03:08:47;98753.00;;;2.40
7389;BMP180;3735;50.136;11.062;2024-03-07T03:11:13;98763.00;;;2.30
7389;BMP180;3735;50.136;11.062;2024-03-07T03:13:43;98761.00;;;2.20
7389;BMP180;3735;50.136;11.062;2024-03-07T03:16:09;98757.00;;;2.10
7389;BMP180;3735;50.136;11.062;2024-03-07T03:18:38;98769.00;;;2.00
7389;BMP180;3735;50.136;11.062;2024-03-07T03:21:04;98760.00;;;1.90
7389;BMP180;3735;50.136;11.062;2024-03-07T03:23:30;98764.00;;;1.90
7389;BMP180;3735;50.136;11.062;2024-03-07T03:25:56;98758.00;;;1.90
7389;BMP180;3735;50.136;11.062;2024-03-07T03:28:22;98752.00;;;1.80
7389;BMP180;3735;50.136;11.062;2024-03-07T03:30:50;98762.00;;;1.70
7389;BMP180;3735;50.136;11.062;2024-03-07T03:33:16;98759.00;;;1.50
7389;BMP180;3735;50.136;11.062;2024-03-07T03:35:43;98764.00;;;1.30
7389;BMP180;3735;50.136;11.062;2024-03-07T03:38:10;98760.00;;;1.10
7389;BMP180;3735;50.136;11.062;2024-03-07T03:40:36;98769.00;;;0.90
7389;BMP180;3735;50.136;11.062;2024-03-07T03:43:02;98766.00;;;0.80
7389;BMP180;3735;50.136;11.062;2024-03-07T03:45:28;98769.00;;;0.70
7389;BMP180;3735;50.136;11.062;2024-03-07T03:47:54;98756.00;;;0.70
7389;BMP180;3735;50.136;11.062;2024-03-07T03:50:20;98765.00;;;0.60
7389;BMP180;3735;50.136;11.062;2024-03-07T03:52:49;98776.00;;;0.60
7389;BMP180;3735;50.136;11.062;2024-03-07T03:55:15;98780.00;;;0.50
7389;BMP180;3735;50.136;11.062;2024-03-07T03:57:43;98770.00;;;0.40
7389;BMP180;3735;50.136;11.062;2024-03-07T04:00:11;98765.00;;;0.30
7389;BMP180;3735;50.136;11.062;2024-03-07T04:02:40;98775.00;;;0.30
7389;BMP180;3735;50.136;11.062;2024-03-07T04:05:11;98768.00;;;0.30
7389;BMP180;3735;50.136;11.062;2024-03-07T04:07:38;98767.00;;;0.20
7389;BMP180;3735;50.136;11.062;2024-03-07T04:10:05;98767.00;;;0.20
7389;BMP180;3735;50.136;11.062;2024-03-07T04:12:38;98771.00;;;0.20
7389;BMP180;3735;50.136;11.062;2024-03-07T04:15:08;98766.00;;;0.20
7389;BMP180;3735;50.136;11.062;2024-03-07T04:17:35;98761.00;;;0.20
7389;BMP180;3735;50.136;11.062;2024-03-07T04:20:03;98752.00;;;0.20
7389;BMP180;3735;50.136;11.062;2024-03-07T04:22:33;98764.00;;;0.10
7389;BMP180;3735;50.136;11.062;2024-03-07T04:25:01;98765.00;;;0.10
7389;BMP180;3735;50.136;11.062;2024-03-07T04:27:27;98766.00;;;0.10
7389;BMP180;3735;50.136;11.062;2024-03-07T04:29:54;98770.00;;;0.10
7389;BMP180;3735;50.136;11.062;2024-03-07T04:32:20;98767.00;;;0.10
7389;BMP180;3735;50.136;11.062;2024-03-07T04:34:46;98771.00;;;0.10
7389;BMP180;3735;50.136;11.062;2024-03-07T04:37:12;98766.00;;;0.00
7389;BMP180;3735;50.136;11.062;2024-03-07T04:39:39;98764.00;;;-0.10
7389;BMP180;3735;50.136;11.062;2024-03-07T04:42:07;98768.00;;;-0.10
7389;BMP180;3735;50.136;11.062;2024-03-07T04:44:35;98763.00;;;-0.10
7389;BMP180;3735;50.136;11.062;2024-03-07T04:47:02;98763.00;;;-0.10
7389;BMP180;3735;50.136;11.062;2024-03-07T04:49:30;98774.00;;;-0.10
7389;BMP180;3735;50.136;11.062;2024-03-07T04:52:01;98758.00;;;0.10
7389;BMP180;3735;50.136;11.062;2024-03-07T04:54:29;98756.00;;;0.20
7389;BMP180;3735;50.136;11.062;2024-03-07T04:56:55;98761.00;;;0.30
7389;BMP180;3735;50.136;11.062;2024-03-07T04:59:22;98763.00;;;0.50
7389;BMP180;3735;50.136;11.062;2024-03-07T05:01:49;98755.00;;;0.60
7389;BMP180;3735;50.136;11.062;2024-03-07T05:04:16;98751.00;;;0.60
7389;BMP180;3735;50.136;11.062;2024-03-07T05:06:43;98746.00;;;0.70
7389;BMP180;3735;50.136;11.062;2024-03-07T05:09:10;98756.00;;;0.70
7389;BMP180;3735;50.136;11.062;2024-03-07T05:11:49;98751.00;;;0.80
7389;BMP180;3735;50.136;11.062;2024-03-07T05:14:18;98755.00;;;0.90
7389;BMP180;3735;50.136;11.062;2024-03-07T05:16:44;98739.00;;;1.00
7389;BMP180;3735;50.136;11.062;2024-03-07T05:19:10;98741.00;;;1.10
7389;BMP180;3735;50.136;11.062;2024-03-07T05:21:36;98744.00;;;1.20
7389;BMP180;3735;50.136;11.062;2024-03-07T05:24:08;98755.00;;;1.30
7389;BMP180;3735;50.136;11.062;2024-03-07T05:26:37;98749.00;;;1.40
7389;BMP180;3735;50.136;11.062;2024-03-07T05:29:07;98742.00;;;1.50
7389;BMP180;3735;50.136;11.062;2024-03-07T05:31:38;98746.00;;;1.50
7389;BMP180;3735;50.136;11.062;2024-03-07T05:34:05;98740.00;;;1.60
7389;BMP180;3735;50.136;11.062;2024-03-07T05:36:37;98739.00;;;1.60
7389;BMP180;3735;50.136;11.062;2024-03-07T05:39:10;98745.00;;;1.60
7389;BMP180;3735;50.136;11.062;2024-03-07T05:41:37;98749.00;;;1.60
7389;BMP180;3735;50.136;11.062;2024-03-07T05:44:04;98743.00;;;1.60
7389;BMP180;3735;50.136;11.062;2024-03-07T05:46:41;98757.00;;;1.70
7389;BMP180;3735;50.136;11.062;2024-03-07T05:49:10;98753.00;;;1.80
7389;BMP180;3735;50.136;11.062;2024-03-07T05:51:36;98750.00;;;1.90
7389;BMP180;3735;50.136;11.062;2024-03-07T05:54:02;98734.00;;;2.00
7389;BMP180;3735;50.136;11.062;2024-03-07T05:56:35;98738.00;;;2.10
7389;BMP180;3735;50.136;11.062;2024-03-07T05:59:08;98740.00;;;2.10
7389;BMP180;3735;50.136;11.062;2024-03-07T06:01:37;98742.00;;;2.20
7389;BMP180;3735;50.136;11.062;2024-03-07T06:04:09;98745.00;;;2.20
7389;BMP180;3735;50.136;11.062;2024-03-07T06:06:36;98739.00;;;2.20
7389;BMP180;3735;50.136;11.062;2024-03-07T06:09:09;98746.00;;;2.20
7389;BMP180;3735;50.136;11.062;2024-03-07T06:11:39;98748.00;;;2.20
7389;BMP180;3735;50.136;11.062;2024-03-07T06:14:08;98746.00;;;2.20
7389;BMP180;3735;50.136;11.062;2024-03-07T06:16:36;98746.00;;;2.20
7389;BMP180;3735;50.136;11.062;2024-03-07T06:19:05;98734.00;;;2.20
7389;BMP180;3735;50.136;11.062;2024-03-07T06:21:37;98751.00;;;2.30
7389;BMP180;3735;50.136;11.062;2024-03-07T06:24:05;98742.00;;;2.40
7389;BMP180;3735;50.136;11.062;2024-03-07T06:26:35;98746.00;;;2.40
7389;BMP180;3735;50.136;11.062;2024-03-07T06:29:15;98731.00;;;2.60
7389;BMP180;3735;50.136;11.062;2024-03-07T06:31:45;98749.00;;;2.60
7389;BMP180;3735;50.136;11.062;2024-03-07T06:34:14;98734.00;;;2.80
7389;BMP180;3735;50.136;11.062;2024-03-07T06:36:40;98741.00;;;2.90
7389;BMP180;3735;50.136;11.062;2024-03-07T06:39:07;98740.00;;;2.90
7389;BMP180;3735;50.136;11.062;2024-03-07T06:41:36;98754.00;;;3.00
7389;BMP180;3735;50.136;11.062;2024-03-07T06:44:03;98749.00;;;3.10
7389;BMP180;3735;50.136;11.062;2024-03-07T06:46:29;98740.00;;;3.10
7389;BMP180;3735;50.136;11.062;2024-03-07T06:48:55;98726.00;;;3.10
7389;BMP180;3735;50.136;11.062;2024-03-07T06:51:24;98741.00;;;3.00
7389;BMP180;3735;50.136;11.062;2024-03-07T06:53:52;98734.00;;;3.10
7389;BMP180;3735;50.136;11.062;2024-03-07T06:56:18;98738.00;;;3.10
7389;BMP180;3735;50.136;11.062;2024-03-07T06:58:44;98748.00;;;3.20
7389;BMP180;3735;50.136;11.062;2024-03-07T07:01:14;98740.00;;;3.30
7389;BMP180;3735;50.136;11.062;2024-03-07T07:03:41;98741.00;;;3.50
7389;BMP180;3735;50.136;11.062;2024-03-07T07:06:09;98740.00;;;3.50
7389;BMP180;3735;50.136;11.062;2024-03-07T07:08:36;98746.00;;;3.70
7389;BMP180;3735;50.136;11.062;2024-03-07T07:11:02;98731.00;;;3.90
7389;BMP180;3735;50.136;11.062;2024-03-07T07:13:30;98751.00;;;4.10
7389;BMP180;3735;50.136;11.062;2024-03-07T07:15:56;98737.00;;;4.30
7389;BMP180;3735;50.136;11.062;2024-03-07T07:18:22;98744.00;;;4.50
7389;BMP180;3735;50.136;11.062;2024-03-07T07:20:49;98736.00;;;4.60
7389;BMP180;3735;50.136;11.062;2024-03-07T07:23:18;98735.00;;;4.70
7389;BMP180;3735;50.136;11.062;2024-03-07T07:25:44;98731.00;;;4.90
7389;BMP180;3735;50.136;11.062;2024-03-07T07:28:10;98736.00;;;5.00
7389;BMP180;3735;50.136;11.062;2024-03-07T07:30:36;98738.00;;;5.20
7389;BMP180;3735;50.136;11.062;2024-03-07T07:33:03;98735.00;;;5.40
7389;BMP180;3735;50.136;11.062;2024-03-07T07:35:29;98735.00;;;5.50
7389;BMP180;3735;50.136;11.062;2024-03-07T07:37:54;98733.00;;;5.70
7389;BMP180;3735;50.136;11.062;2024-03-07T07:40:24;98725.00;;;5.90
7389;BMP180;3735;50.136;11.062;2024-03-07T07:42:53;98724.00;;;6.10
7389;BMP180;3735;50.136;11.062;2024-03-07T07:45:21;98716.00;;;6.10
7389;BMP180;3735;50.136;11.062;2024-03-07T07:47:52;98715.00;;;6.10
7389;BMP180;3735;50.136;11.062;2024-03-07T07:50:23;98721.00;;;6.20
7389;BMP180;3735;50.136;11.062;2024-03-07T07:52:54;98716.00;;;6.30
7389;BMP180;3735;50.136;11.062;2024-03-07T07:55:24;98699.00;;;6.40
7389;BMP180;3735;50.136;11.062;2024-03-07T07:57:55;98708.00;;;6.50
7389;BMP180;3735;50.136;11.062;2024-03-07T08:00:24;98713.00;;;7.00
7389;BMP180;3735;50.136;11.062;2024-03-07T08:03:01;98708.00;;;7.30
7389;BMP180;3735;50.136;11.062;2024-03-07T08:05:30;98711.00;;;7.40
7389;BMP180;3735;50.136;11.062;2024-03-07T08:08:01;98707.00;;;7.60
7389;BMP180;3735;50.136;11.062;2024-03-07T08:10:31;98708.00;;;7.50
7389;BMP180;3735;50.136;11.062;2024-03-07T08:13:01;98705.00;;;7.50
7389;BMP180;3735;50.136;11.062;2024-03-07T08:15:30;98705.00;;;7.60
7389;BMP180;3735;50.136;11.062;2024-03-07T08:17:57;98706.00;;;7.80
7389;BMP180;3735;50.136;11.062;2024-03-07T08:20:24;98713.00;;;7.90
7389;BMP180;3735;50.136;11.062;2024-03-07T08:22:55;98705.00;;;8.10
7389;BMP180;3735;50.136;11.062;2024-03-07T08:25:25;98698.00;;;8.60
7389;BMP180;3735;50.136;11.062;2024-03-07T08:27:53;98695.00;;;9.00
7389;BMP180;3735;50.136;11.062;2024-03-07T08:30:19;98695.00;;;9.90
7389;BMP180;3735;50.136;11.062;2024-03-07T08:32:48;98654.00;;;11.00
7389;BMP180;3735;50.136;11.062;2024-03-07T08:35:15;98683.00;;;12.00
7389;BMP180;3735;50.136;11.062;2024-03-07T08:37:47;98676.00;;;12.70
7389;BMP180;3735;50.136;11.062;2024-03-07T08:40:20;98678.00;;;12.60
7389;BMP180;3735;50.136;11.062;2024-03-07T08:42:49;98673.00;;;13.30
7389;BMP180;3735;50.136;11.062;2024-03-07T08:45:18;98664.00;;;13.80
7389;BMP180;3735;50.136;11.062;2024-03-07T08:47:49;98669.00;;;13.90
7389;BMP180;3735;50.136;11.062;2024-03-07T08:50:16;98672.00;;;13.80
7389;BMP180;3735;50.136;11.062;2024-03-07T08:52:44;98664.00;;;14.60
7389;BMP180;3735;50.136;11.062;2024-03-07T08:55:13;98661.00;;;14.40
7389;BMP180;3735;50.136;11.062;2024-03-07T08:57:41;98660.00;;;14.80
7389;BMP180;3735;50.136;11.062;2024-03-07T09:00:08;98662.00;;;14.60
7389;BMP180;3735;50.136;11.062;2024-03-07T09:02:39;98663.00;;;14.30
7389;BMP180;3735;50.136;11.062;2024-03-07T09:05:06;98670.00;;;13.40
7389;BMP180;3735;50.136;11.062;2024-03-07T09:07:32;98674.00;;;12.40
7389;BMP180;3735;50.136;11.062;2024-03-07T09:09:58;98667.00;;;11.50
7389;BMP180;3735;50.136;11.062;2024-03-07T09:12:24;98675.00;;;11.40
7389;BMP180;3735;50.136;11.062;2024-03-07T09:14:53;98660.00;;;11.80
7389;BMP180;3735;50.136;11.062;2024-03-07T09:17:20;98656.00;;;12.70
7389;BMP180;3735;50.136;11.062;2024-03-07T09:19:46;98659.00;;;11.90
7389;BMP180;3735;50.136;11.062;2024-03-07T09:22:12;98654.00;;;12.60
7389;BMP180;3735;50.136;11.062;2024-03-07T09:24:37;98656.00;;;13.90
7389;BMP180;3735;50.136;11.062;2024-03-07T09:27:03;98645.00;;;13.90
7389;BMP180;3735;50.136;11.062;2024-03-07T09:29:30;98653.00;;;14.20
7389;BMP180;3735;50.136;11.062;2024-03-07T09:31:56;98647.00;;;14.30
7389;BMP180;3735;50.136;11.062;2024-03-07T09:34:24;98650.00;;;13.20
7389;BMP180;3735;50.136;11.062;2024-03-07T09:36:51;98653.00;;;11.40
7389;BMP180;3735;50.136;11.062;2024-03-07T09:39:18;98624.00;;;10.20
7389;BMP180;3735;50.136;11.062;2024-03-07T09:41:44;98670.00;;;9.30
7389;BMP180;3735;50.136;11.062;2024-03-07T09:44:14;98653.00;;;8.90
7389;BMP180;3735;50.136;11.062;2024-03-07T09:46:41;98670.00;;;8.30
7389;BMP180;3735;50.136;11.062;2024-03-07T09:49:08;98638.00;;;8.00
7389;BMP180;3735;50.136;11.062;2024-03-07T09:51:36;98669.00;;;7.90
7389;BMP180;3735;50.136;11.062;2024-03-07T09:54:03;98668.00;;;7.70
7389;BMP180;3735;50.136;11.062;2024-03-07T09:56:31;98675.00;;;7.90
7389;BMP180;3735;50.136;11.062;2024-03-07T09:59:12;98664.00;;;8.00
7389;BMP180;3735;50.136;11.062;2024-03-07T10:01:41;98671.00;;;8.10
7389;BMP180;3735;50.136;11.062;2024-03-07T10:04:13;98668.00;;;8.20
7389;BMP180;3735;50.136;11.062;2024-03-07T10:06:41;98671.00;;;8.20
7389;BMP180;3735;50.136;11.062;2024-03-07T10:09:10;98665.00;;;8.40
7389;BMP180;3735;50.136;11.062;2024-03-07T10:11:42;98670.00;;;8.70
7389;BMP180;3735;50.136;11.062;2024-03-07T10:14:09;98651.00;;;9.30
7389;BMP180;3735;50.136;11.062;2024-03-07T10:16:36;98647.00;;;11.80
7389;BMP180;3735;50.136;11.062;2024-03-07T10:19:05;98636.00;;;13.90
7389;BMP180;3735;50.136;11.062;2024-03-07T10:21:33;98636.00;;;13.40
7389;BMP180;3735;50.136;11.062;2024-03-07T10:24:09;98627.00;;;12.60
7389;BMP180;3735;50.136;11.062;2024-03-07T10:26:37;98642.00;;;11.70
7389;BMP180;3735;50.136;11.062;2024-03-07T10:29:04;98642.00;;;11.30
7389;BMP180;3735;50.136;11.062;2024-03-07T10:31:34;98645.00;;;10.50
7389;BMP180;3735;50.136;11.062;2024-03-07T10:34:06;98641.00;;;10.40
7389;BMP180;3735;50.136;11.062;2024-03-07T10:36:33;98633.00;;;10.30
7389;BMP180;3735;50.136;11.062;2024-03-07T10:39:01;98650.00;;;10.10
7389;BMP180;3735;50.136;11.062;2024-03-07T10:41:28;98630.00;;;10.10
7389;BMP180;3735;50.136;11.062;2024-03-07T10:43:58;98634.00;;;10.10
7389;BMP180;3735;50.136;11.062;2024-03-07T10:46:26;98641.00;;;9.80
7389;BMP180;3735;50.136;11.062;2024-03-07T10:48:55;98636.00;;;9.50
7389;BMP180;3735;50.136;11.062;2024-03-07T10:51:46;98640.00;;;9.60
7389;BMP180;3735;50.136;11.062;2024-03-07T10:54:33;98637.00;;;9.80
7389;BMP180;3735;50.136;11.062;2024-03-07T10:59:50;98642.00;;;9.90
7389;BMP180;3735;50.136;11.062;2024-03-07T11:02:32;98644.00;;;9.90
7389;BMP180;3735;50.136;11.062;2024-03-07T11:05:00;98637.00;;;9.70
7389;BMP180;3735;50.136;11.062;2024-03-07T11:07:26;98625.00;;;9.70
7389;BMP180;3735;50.136;11.062;2024-03-07T11:09:54;98622.00;;;9.80
7389;BMP180;3735;50.136;11.062;2024-03-07T11:12:25;98628.00;;;9.90
7389;BMP180;3735;50.136;11.062;2024-03-07T11:14:55;98626.00;;;9.90
7389;BMP180;3735;50.136;11.062;2024-03-07T11:17:22;98631.00;;;9.90
7389;BMP180;3735;50.136;11.062;2024-03-07T11:19:48;98621.00;;;9.90
7389;BMP180;3735;50.136;11.062;2024-03-07T11:22:33;98632.00;;;10.00
7389;BMP180;3735;50.136;11.062;2024-03-07T11:25:05;98629.00;;;9.80
7389;BMP180;3735;50.136;11.062;2024-03-07T11:27:39;98628.00;;;9.80
7389;BMP180;3735;50.136;11.062;2024-03-07T11:30:10;98625.00;;;9.90
7389;BMP180;3735;50.136;11.062;2024-03-07T11:32:37;98621.00;;;9.60
7389;BMP180;3735;50.136;11.062;2024-03-07T11:35:12;98622.00;;;9.40
7389;BMP180;3735;50.136;11.062;2024-03-07T11:37:44;98609.00;;;9.50
7389;BMP180;3735;50.136;11.062;2024-03-07T11:43:01;98614.00;;;9.40
7389;BMP180;3735;50.136;11.062;2024-03-07T11:45:31;98610.00;;;9.70
7389;BMP180;3735;50.136;11.062;2024-03-07T11:48:05;98602.00;;;10.90
7389;BMP180;3735;50.136;11.062;2024-03-07T11:50:39;98593.00;;;11.10
7389;BMP180;3735;50.136;11.062;2024-03-07T11:53:07;98587.00;;;11.60
7389;BMP180;3735;50.136;11.062;2024-03-07T11:55:39;98580.00;;;12.60
7389;BMP180;3735;50.136;11.062;2024-03-07T11:58:20;98570.00;;;12.90
7389;BMP180;3735;50.136;11.062;2024-03-07T12:00:48;98567.00;;;13.90
7389;BMP180;3735;50.136;11.062;2024-03-07T12:03:16;98568.00;;;14.50
7389;BMP180;3735;50.136;11.062;2024-03-07T12:05:52;98561.00;;;14.50
7389;BMP180;3735;50.136;11.062;2024-03-07T12:08:18;98541.00;;;13.90
7389;BMP180;3735;50.136;11.062;2024-03-07T12:10:48;98560.00;;;13.40
7389;BMP180;3735;50.136;11.062;2024-03-07T12:13:17;98552.00;;;14.60
7389;BMP180;3735;50.136;11.062;2024-03-07T12:15:46;98542.00;;;16.10
7389;BMP180;3735;50.136;11.062;2024-03-07T12:18:13;98554.00;;;14.90
7389;BMP180;3735;50.136;11.062;2024-03-07T12:20:44;98546.00;;;14.00
7389;BMP180;3735;50.136;11.062;2024-03-07T12:23:16;98547.00;;;13.60
7389;BMP180;3735;50.136;11.062;2024-03-07T12:25:45;98556.00;;;13.10
7389;BMP180;3735;50.136;11.062;2024-03-07T12:28:13;98549.00;;;12.60
7389;BMP180;3735;50.136;11.062;2024-03-07T12:30:54;98555.00;;;12.10
7389;BMP180;3735;50.136;11.062;2024-03-07T12:33:21;98558.00;;;11.60
7389;BMP180;3735;50.136;11.062;2024-03-07T12:35:52;98556.00;;;11.00
7389;BMP180;3735;50.136;11.062;2024-03-07T12:38:21;98567.00;;;10.70
7389;BMP180;3735;50.136;11.062;2024-03-07T12:41:09;98564.00;;;10.50
7389;BMP180;3735;50.136;11.062;2024-03-07T12:43:41;98557.00;;;10.50
7389;BMP180;3735;50.136;11.062;2024-03-07T12:46:13;98556.00;;;10.20
7389;BMP180;3735;50.136;11.062;2024-03-07T12:48:41;98559.00;;;10.30
7389;BMP180;3735;50.136;11.062;2024-03-07T12:51:07;98562.00;;;10.20
7389;BMP180;3735;50.136;11.062;2024-03-07T12:53:37;98561.00;;;10.00
7389;BMP180;3735;50.136;11.062;2024-03-07T12:56:06;98553.00;;;10.10
7389;BMP180;3735;50.136;11.062;2024-03-07T12:58:32;98555.00;;;10.40
7389;BMP180;3735;50.136;11.062;2024-03-07T13:00:58;98553.00;;;10.60
7389;BMP180;3735;50.136;11.062;2024-03-07T13:03:25;98547.00;;;11.80
7389;BMP180;3735;50.136;11.062;2024-03-07T13:05:57;98536.00;;;13.50
7389;BMP180;3735;50.136;11.062;2024-03-07T13:08:27;98529.00;;;14.00
7389;BMP180;3735;50.136;11.062;2024-03-07T13:10:55;98535.00;;;13.90
7389;BMP180;3735;50.136;11.062;2024-03-07T13:13:21;98534.00;;;14.00
7389;BMP180;3735;50.136;11.062;2024-03-07T13:15:47;98538.00;;;13.30
7389;BMP180;3735;50.136;11.062;2024-03-07T13:18:13;98528.00;;;12.80
7389;BMP180;3735;50.136;11.062;2024-03-07T13:20:39;98539.00;;;12.50
7389;BMP180;3735;50.136;11.062;2024-03-07T13:23:05;98543.00;;;12.10
7389;BMP180;3735;50.136;11.062;2024-03-07T13:25:32;98529.00;;;11.70
7389;BMP180;3735;50.136;11.062;2024-03-07T13:28:04;98540.00;;;11.50
7389;BMP180;3735;50.136;11.062;2024-03-07T13:30:37;98548.00;;;11.00
7389;BMP180;3735;50.136;11.062;2024-03-07T13:33:04;98544.00;;;10.90
7389;BMP180;3735;50.136;11.062;2024-03-07T13:35:30;98545.00;;;10.70
7389;BMP180;3735;50.136;11.062;2024-03-07T13:37:56;98537.00;;;10.60
7389;BMP180;3735;50.136;11.062;2024-03-07T13:40:26;98539.00;;;10.40
7389;BMP180;3735;50.136;11.062;2024-03-07T13:43:00;98541.00;;;10.30
7389;BMP180;3735;50.136;11.062;2024-03-07T13:45:32;98543.00;;;10.00
7389;BMP180;3735;50.136;11.062;2024-03-07T13:48:05;98549.00;;;9.70
7389;BMP180;3735;50.136;11.062;2024-03-07T13:50:34;98559.00;;;9.40
7389;BMP180;3735;50.136;11.062;2024-03-07T13:53:00;98556.00;;;9.50
7389;BMP180;3735;50.136;11.062;2024-03-07T14:05:11;98538.00;;;9.20
7389;BMP180;3735;50.136;11.062;2024-03-07T14:11:38;98551.00;;;9.20
7389;BMP180;3735;50.136;11.062;2024-03-07T14:17:32;98544.00;;;9.20
7389;BMP180;3735;50.136;11.062;2024-03-07T14:29:47;98540.00;;;8.90
7389;BMP180;3735;50.136;11.062;2024-03-07T14:32:16;98530.00;;;8.90
7389;BMP180;3735;50.136;11.062;2024-03-07T14:35:02;98541.00;;;9.00
7389;BMP180;3735;50.136;11.062;2024-03-07T14:37:50;98550.00;;;8.70
7389;BMP180;3735;50.136;11.062;2024-03-07T14:40:17;98545.00;;;8.60
7389;BMP180;3735;50.136;11.062;2024-03-07T14:42:47;98548.00;;;8.50
7389;BMP180;3735;50.136;11.062;2024-03-07T14:45:21;98550.00;;;8.60
7389;BMP180;3735;50.136;11.062;2024-03-07T14:47:50;98548.00;;;8.30
7389;BMP180;3735;50.136;11.062;2024-03-07T14:50:19;98547.00;;;8.40
7389;BMP180;3735;50.136;11.062;2024-03-07T14:52:49;98548.00;;;8.60
7389;BMP180;3735;50.136;11.062;2024-03-07T14:55:15;98542.00;;;8.70
7389;BMP180;3735;50.136;11.062;2024-03-07T14:57:41;98542.00;;;8.50
7389;BMP180;3735;50.136;11.062;2024-03-07T15:00:08;98540.00;;;8.50
7389;BMP180;3735;50.136;11.062;2024-03-07T15:02:48;98543.00;;;8.40
7389;BMP180;3735;50.136;11.062;2024-03-07T15:05:17;98545.00;;;8.40
7389;BMP180;3735;50.136;11.062;2024-03-07T15:07:46;98547.00;;;8.60
7389;BMP180;3735;50.136;11.062;2024-03-07T15:10:35;98539.00;;;8.50